createdAt,value
2023-02-09T00:00:04.968Z,980.93
2023-02-09T00:00:48.792Z,980.93
2023-02-09T00:01:06.521Z,980.93
2023-02-09T00:01:38.685Z,980.93
2023-02-09T00:02:08.450Z,981.34
2023-02-09T00:02:40.148Z,981.34
2023-02-09T00:03:10.547Z,981.04
2023-02-09T00:03:42.941Z,981.04
2023-02-09T00:04:13.748Z,981.14
2023-02-09T00:04:44.125Z,981.14
2023-02-09T00:05:14.370Z,981.04
2023-02-09T00:05:46.121Z,981.04
2023-02-09T00:06:18.098Z,981.24
2023-02-09T00:06:48.172Z,981.24
2023-02-09T00:07:18.825Z,981.24
2023-02-09T00:07:50.292Z,981.24
2023-02-09T00:08:20.610Z,981.24
2023-02-09T00:08:52.140Z,981.24
2023-02-09T00:09:23.335Z,981.24
2023-02-09T00:09:54.130Z,981.24
2023-02-09T00:10:24.367Z,981.14
2023-02-09T00:10:57.116Z,981.14
2023-02-09T00:11:26.320Z,981.24
2023-02-09T00:11:58.761Z,981.24
2023-02-09T00:12:28.745Z,981.51
2023-02-09T00:13:01.645Z,981.51
2023-02-09T00:13:30.379Z,981.24
2023-02-09T00:14:02.605Z,981.24
2023-02-09T00:14:33.374Z,981.04
2023-02-09T00:15:05.761Z,981.24
2023-02-09T00:15:35.118Z,981.24
2023-02-09T00:16:06.314Z,981.41
2023-02-09T00:16:36.813Z,981.41
2023-02-09T00:17:08.595Z,981.24
2023-02-09T00:17:38.375Z,981.24
2023-02-09T00:18:11.133Z,981.24
2023-02-09T00:18:40.417Z,981.24
2023-02-09T00:19:12.576Z,981.04
2023-02-09T00:19:43.419Z,981.04
2023-02-09T00:20:14.392Z,981.04
2023-02-09T00:20:48.987Z,981.04
2023-02-09T00:21:16.348Z,981.14
2023-02-09T00:21:46.343Z,981.14
2023-02-09T00:22:18.274Z,981.14
2023-02-09T00:22:48.423Z,981.14
2023-02-09T00:23:20.174Z,980.93
2023-02-09T00:23:50.392Z,980.93
2023-02-09T00:24:22.353Z,981.04
2023-02-09T00:24:53.381Z,981.04
2023-02-09T00:25:24.348Z,980.93
2023-02-09T00:25:55.072Z,980.93
2023-02-09T00:26:26.212Z,981.14
2023-02-09T00:26:56.634Z,981.14
2023-02-09T00:27:28.038Z,980.93
2023-02-09T00:27:58.408Z,980.93
2023-02-09T00:28:30.780Z,981.04
2023-02-09T00:29:00.371Z,981.04
2023-02-09T00:29:32.244Z,981.14
2023-02-09T00:30:04.343Z,981.14
2023-02-09T00:30:34.299Z,981.14
2023-02-09T00:31:04.560Z,981.14
2023-02-09T00:31:36.192Z,981.14
2023-02-09T00:32:06.471Z,981.04
2023-02-09T00:32:38.035Z,981.04
2023-02-09T00:33:08.334Z,981.14
2023-02-09T00:33:40.310Z,981.14
2023-02-09T00:34:10.383Z,980.83
2023-02-09T00:34:42.237Z,980.83
2023-02-09T00:35:14.791Z,981.04
2023-02-09T00:35:44.264Z,981.04
2023-02-09T00:36:14.461Z,981.04
2023-02-09T00:36:46.293Z,981.04
2023-02-09T00:37:17.371Z,980.83
2023-02-09T00:37:49.776Z,980.83
2023-02-09T00:38:18.401Z,980.93
2023-02-09T00:38:50.295Z,980.93
2023-02-09T00:39:20.832Z,980.93
2023-02-09T00:39:52.132Z,980.93
2023-02-09T00:40:23.909Z,980.73
2023-02-09T00:40:54.064Z,980.73
2023-02-09T00:41:24.487Z,981.14
2023-02-09T00:41:57.049Z,981.14
2023-02-09T00:42:26.335Z,980.73
2023-02-09T00:42:58.527Z,980.73
2023-02-09T00:43:28.525Z,981.14
2023-02-09T00:44:00.142Z,981.14
2023-02-09T00:44:30.380Z,980.83
2023-02-09T00:45:03.231Z,980.83
2023-02-09T00:45:33.541Z,981.14
2023-02-09T00:46:05.182Z,981.04
2023-02-09T00:46:34.388Z,981.04
2023-02-09T00:47:06.085Z,980.93
2023-02-09T00:47:36.777Z,980.93
2023-02-09T00:48:08.187Z,981.24
2023-02-09T00:48:38.378Z,981.24
2023-02-09T00:49:10.092Z,981.14
2023-02-09T00:49:40.431Z,981.14
2023-02-09T00:50:12.922Z,980.93
2023-02-09T00:50:43.918Z,980.93
2023-02-09T00:51:14.180Z,980.93
2023-02-09T00:51:44.436Z,980.93
2023-02-09T00:52:16.156Z,981.04
2023-02-09T00:52:46.696Z,981.04
2023-02-09T00:53:18.065Z,981.04
2023-02-09T00:53:48.370Z,981.04
2023-02-09T00:54:20.192Z,980.93
2023-02-09T00:54:50.372Z,980.93
2023-02-09T00:55:23.117Z,981.14
2023-02-09T00:55:53.376Z,981.14
2023-02-09T00:56:24.056Z,981.14
2023-02-09T00:56:54.400Z,981.14
2023-02-09T00:57:26.047Z,981.14
2023-02-09T00:57:56.625Z,981.14
2023-02-09T00:58:28.042Z,980.83
2023-02-09T00:58:58.356Z,980.83
2023-02-09T00:59:30.115Z,981.04
2023-02-09T01:00:00.423Z,981.04
2023-02-09T01:00:32.940Z,980.83
2023-02-09T01:01:03.800Z,981.04
2023-02-09T01:01:34.138Z,981.04
2023-02-09T01:02:04.361Z,980.93
2023-02-09T01:02:36.340Z,980.93
2023-02-09T01:03:06.344Z,981.04
2023-02-09T01:03:38.340Z,981.04
2023-02-09T01:04:08.313Z,980.93
2023-02-09T01:04:40.443Z,980.93
2023-02-09T01:05:10.850Z,980.83
2023-02-09T01:05:41.393Z,980.83
2023-02-09T01:06:13.398Z,980.93
2023-02-09T01:06:44.107Z,980.93
2023-02-09T01:07:14.383Z,980.83
2023-02-09T01:07:46.043Z,980.83
2023-02-09T01:08:18.051Z,981.04
2023-02-09T01:08:48.750Z,981.04
2023-02-09T01:09:18.335Z,980.93
2023-02-09T01:09:50.283Z,980.93
2023-02-09T01:10:21.203Z,981.04
2023-02-09T01:10:52.167Z,981.04
2023-02-09T01:11:23.778Z,981.24
2023-02-09T01:11:54.341Z,981.24
2023-02-09T01:12:24.357Z,980.73
2023-02-09T01:12:56.128Z,980.73
2023-02-09T01:13:26.338Z,981.14
2023-02-09T01:13:58.290Z,981.14
2023-02-09T01:14:28.394Z,980.93
2023-02-09T01:15:00.178Z,980.93
2023-02-09T01:15:31.773Z,981.04
2023-02-09T01:16:02.151Z,981.04
2023-02-09T01:16:33.396Z,981.04
2023-02-09T01:17:05.428Z,980.93
2023-02-09T01:17:34.307Z,980.93
2023-02-09T01:18:06.243Z,981.14
2023-02-09T01:18:36.612Z,981.14
2023-02-09T01:19:08.115Z,981.04
2023-02-09T01:19:38.721Z,981.04
2023-02-09T01:20:10.504Z,981.14
2023-02-09T01:20:40.359Z,981.14
2023-02-09T01:21:12.133Z,981.24
2023-02-09T01:21:43.362Z,981.24
2023-02-09T01:22:14.882Z,980.93
2023-02-09T01:22:44.380Z,980.93
2023-02-09T01:23:16.003Z,981.04
2023-02-09T01:23:46.345Z,981.04
2023-02-09T01:24:18.245Z,980.93
2023-02-09T01:24:48.353Z,980.93
2023-02-09T01:25:20.715Z,980.83
2023-02-09T01:25:50.329Z,980.83
2023-02-09T01:26:22.778Z,981.14
2023-02-09T01:26:53.410Z,981.14
2023-02-09T01:27:24.240Z,980.93
2023-02-09T01:27:54.392Z,980.93
2023-02-09T01:28:26.505Z,981.04
2023-02-09T01:28:57.179Z,981.04
2023-02-09T01:29:28.597Z,981.14
2023-02-09T01:29:58.479Z,981.14
2023-02-09T01:30:31.118Z,980.83
2023-02-09T01:31:00.583Z,980.83
2023-02-09T01:31:32.414Z,980.83
2023-02-09T01:32:03.496Z,981.04
2023-02-09T01:32:34.386Z,981.04
2023-02-09T01:33:04.719Z,980.93
2023-02-09T01:33:36.517Z,980.93
2023-02-09T01:34:06.322Z,981.04
2023-02-09T01:34:38.313Z,981.04
2023-02-09T01:35:08.764Z,981.24
2023-02-09T01:35:40.551Z,981.24
2023-02-09T01:36:10.346Z,981.04
2023-02-09T01:36:42.045Z,981.04
2023-02-09T01:37:13.362Z,981.04
2023-02-09T01:37:44.320Z,981.04
2023-02-09T01:38:14.396Z,981.14
2023-02-09T01:38:46.053Z,981.14
2023-02-09T01:39:17.454Z,981.04
2023-02-09T01:39:48.124Z,981.04
2023-02-09T01:40:19.217Z,981.14
2023-02-09T01:40:50.135Z,981.14
2023-02-09T01:41:20.350Z,981.24
2023-02-09T01:41:52.114Z,981.24
2023-02-09T01:42:23.781Z,981.24
2023-02-09T01:42:54.135Z,981.24
2023-02-09T01:43:24.320Z,981.24
2023-02-09T01:43:56.156Z,981.24
2023-02-09T01:44:26.390Z,981.04
2023-02-09T01:44:58.261Z,981.04
2023-02-09T01:45:29.151Z,981.24
2023-02-09T01:46:00.434Z,981.24
2023-02-09T01:46:31.044Z,981.04
2023-02-09T01:47:02.301Z,981.04
2023-02-09T01:47:33.397Z,981.14
2023-02-09T01:48:05.146Z,981.24
2023-02-09T01:48:34.377Z,981.24
2023-02-09T01:49:06.945Z,981.34
2023-02-09T01:49:36.712Z,981.34
2023-02-09T01:50:08.678Z,981.14
2023-02-09T01:50:38.414Z,981.14
2023-02-09T01:51:10.224Z,980.93
2023-02-09T01:51:40.351Z,980.93
2023-02-09T01:52:12.227Z,981.14
2023-02-09T01:52:43.376Z,981.14
2023-02-09T01:53:14.433Z,981.04
2023-02-09T01:53:44.435Z,981.04
2023-02-09T01:54:16.322Z,981.04
2023-02-09T01:54:46.342Z,981.04
2023-02-09T01:55:18.743Z,981.14
2023-02-09T01:55:48.337Z,981.14
2023-02-09T01:56:20.057Z,981.14
2023-02-09T01:56:50.341Z,981.14
2023-02-09T01:57:22.307Z,980.93
2023-02-09T01:57:53.364Z,980.93
2023-02-09T01:58:24.056Z,981.04
2023-02-09T01:58:54.328Z,981.04
2023-02-09T01:59:26.028Z,980.93
2023-02-09T01:59:56.717Z,980.93
2023-02-09T02:00:29.524Z,981.04
2023-02-09T02:01:00.199Z,981.04
2023-02-09T02:01:30.264Z,981.04
2023-02-09T02:02:00.385Z,981.04
2023-02-09T02:02:32.749Z,980.93
2023-02-09T02:03:03.362Z,981.04
2023-02-09T02:03:34.760Z,981.04
2023-02-09T02:04:04.363Z,981.24
2023-02-09T02:04:36.209Z,981.24
2023-02-09T02:05:06.844Z,980.93
2023-02-09T02:05:37.453Z,980.93
2023-02-09T02:06:08.347Z,981.14
2023-02-09T02:06:40.143Z,981.14
2023-02-09T02:07:10.375Z,981.04
2023-02-09T02:07:42.286Z,981.04
2023-02-09T02:08:13.376Z,981.04
2023-02-09T02:08:44.134Z,981.04
2023-02-09T02:09:14.461Z,981.04
2023-02-09T02:09:46.206Z,981.04
2023-02-09T02:10:19.256Z,980.93
2023-02-09T02:10:48.278Z,980.93
2023-02-09T02:11:18.349Z,980.73
2023-02-09T02:11:51.321Z,980.73
2023-02-09T02:12:20.408Z,981.04
2023-02-09T02:12:52.237Z,981.04
2023-02-09T02:13:23.398Z,981.04
2023-02-09T02:13:54.229Z,981.04
2023-02-09T02:14:24.471Z,981.04
2023-02-09T02:14:56.224Z,981.04
2023-02-09T02:15:27.125Z,980.93
2023-02-09T02:15:58.908Z,980.93
2023-02-09T02:16:28.337Z,980.73
2023-02-09T02:17:00.381Z,980.73
2023-02-09T02:17:30.389Z,980.93
2023-02-09T02:18:02.472Z,980.93
2023-02-09T02:18:33.664Z,980.83
2023-02-09T02:19:05.256Z,980.83
2023-02-09T02:19:34.336Z,980.83
2023-02-09T02:20:06.895Z,980.83
2023-02-09T02:20:36.923Z,980.83
2023-02-09T02:21:08.360Z,980.93
2023-02-09T02:21:38.362Z,980.93
2023-02-09T02:22:10.126Z,980.73
2023-02-09T02:22:40.344Z,980.73
2023-02-09T02:23:12.140Z,980.73
2023-02-09T02:23:43.419Z,980.73
2023-02-09T02:24:14.115Z,980.93
2023-02-09T02:24:44.450Z,980.93
2023-02-09T02:25:16.594Z,980.73
2023-02-09T02:25:46.590Z,980.73
2023-02-09T02:26:18.163Z,980.83
2023-02-09T02:26:48.789Z,980.83
2023-02-09T02:27:20.138Z,980.93
2023-02-09T02:27:50.389Z,980.93
2023-02-09T02:28:22.781Z,980.63
2023-02-09T02:28:53.350Z,980.63
2023-02-09T02:29:24.677Z,980.73
2023-02-09T02:29:54.341Z,980.73
2023-02-09T02:30:27.048Z,980.73
2023-02-09T02:30:56.847Z,980.73
2023-02-09T02:31:28.403Z,980.93
2023-02-09T02:31:58.454Z,980.93
2023-02-09T02:32:30.056Z,980.63
2023-02-09T02:33:00.343Z,980.63
2023-02-09T02:33:32.207Z,980.73
2023-02-09T02:34:03.349Z,980.73
2023-02-09T02:34:34.414Z,980.73
2023-02-09T02:35:04.968Z,980.73
2023-02-09T02:35:36.291Z,980.73
2023-02-09T02:36:06.304Z,980.73
2023-02-09T02:36:38.216Z,980.73
2023-02-09T02:37:08.351Z,980.63
2023-02-09T02:37:41.121Z,980.63
2023-02-09T02:38:10.296Z,980.63
2023-02-09T02:38:42.279Z,980.63
2023-02-09T02:39:13.443Z,980.53
2023-02-09T02:39:44.452Z,980.53
2023-02-09T02:40:15.404Z,980.53
2023-02-09T02:40:47.260Z,980.53
2023-02-09T02:41:16.865Z,980.63
2023-02-09T02:41:48.006Z,980.63
2023-02-09T02:42:18.476Z,980.83
2023-02-09T02:42:50.473Z,980.83
2023-02-09T02:43:20.456Z,980.73
2023-02-09T02:43:52.062Z,980.73
2023-02-09T02:44:23.302Z,980.73
2023-02-09T02:44:54.021Z,980.73
2023-02-09T02:45:25.251Z,980.63
2023-02-09T02:45:56.251Z,980.63
2023-02-09T02:46:26.497Z,980.73
2023-02-09T02:46:58.711Z,980.73
2023-02-09T02:47:28.314Z,980.73
2023-02-09T02:48:00.159Z,980.73
2023-02-09T02:48:30.333Z,980.73
2023-02-09T02:49:02.270Z,980.73
2023-02-09T02:49:33.878Z,980.73
2023-02-09T02:50:06.194Z,980.43
2023-02-09T02:50:35.023Z,980.43
2023-02-09T02:51:06.170Z,980.73
2023-02-09T02:51:36.783Z,980.73
2023-02-09T02:52:08.454Z,980.43
2023-02-09T02:52:38.356Z,980.43
2023-02-09T02:53:10.213Z,980.53
2023-02-09T02:53:40.855Z,980.53
2023-02-09T02:54:12.248Z,980.53
2023-02-09T02:54:44.046Z,980.53
2023-02-09T02:55:14.599Z,980.53
2023-02-09T02:55:44.396Z,980.53
2023-02-09T02:56:16.522Z,980.43
2023-02-09T02:56:46.317Z,980.43
2023-02-09T02:57:19.150Z,980.53
2023-02-09T02:57:48.482Z,980.53
2023-02-09T02:58:20.274Z,980.43
2023-02-09T02:58:50.389Z,980.43
2023-02-09T02:59:22.302Z,980.63
2023-02-09T02:59:53.301Z,980.63
2023-02-09T03:00:27.173Z,980.63
2023-02-09T03:00:54.442Z,980.63
2023-02-09T03:01:26.465Z,980.63
2023-02-09T03:01:56.675Z,980.63
2023-02-09T03:02:28.649Z,980.53
2023-02-09T03:02:58.389Z,980.53
2023-02-09T03:03:30.014Z,980.63
2023-02-09T03:04:00.817Z,980.63
2023-02-09T03:04:32.628Z,980.83
2023-02-09T03:05:03.788Z,980.63
2023-02-09T03:05:34.649Z,980.63
2023-02-09T03:06:04.400Z,980.53
2023-02-09T03:06:35.395Z,980.53
2023-02-09T03:07:07.247Z,980.63
2023-02-09T03:07:37.448Z,980.63
2023-02-09T03:08:09.233Z,980.73
2023-02-09T03:08:39.395Z,980.73
2023-02-09T03:09:11.521Z,980.43
2023-02-09T03:09:41.428Z,980.43
2023-02-09T03:10:21.406Z,980.43
2023-02-09T03:10:29.408Z,980.53
2023-02-09T03:11:08.195Z,980.53
2023-02-09T03:11:14.339Z,980.43
2023-02-09T03:11:45.436Z,980.43
2023-02-09T03:12:19.020Z,980.53
2023-02-09T03:12:47.371Z,980.53
2023-02-09T03:13:19.336Z,980.43
2023-02-09T03:13:49.940Z,980.43
2023-02-09T03:14:24.538Z,980.73
2023-02-09T03:14:51.360Z,980.73
2023-02-09T03:15:24.272Z,980.63
2023-02-09T03:15:54.409Z,980.63
2023-02-09T03:16:24.381Z,980.53
2023-02-09T03:16:56.331Z,980.53
2023-02-09T03:17:26.326Z,980.53
2023-02-09T03:17:59.308Z,980.53
2023-02-09T03:18:28.385Z,980.63
2023-02-09T03:19:00.314Z,980.63
2023-02-09T03:19:30.319Z,980.53
2023-02-09T03:20:02.463Z,980.53
2023-02-09T03:20:36.269Z,980.63
2023-02-09T03:21:05.359Z,980.63
2023-02-09T03:21:34.325Z,980.63
2023-02-09T03:22:06.291Z,980.73
2023-02-09T03:22:36.684Z,980.73
2023-02-09T03:23:08.610Z,980.63
2023-02-09T03:23:38.350Z,980.63
2023-02-09T03:24:10.353Z,980.53
2023-02-09T03:24:40.340Z,980.53
2023-02-09T03:25:14.136Z,980.73
2023-02-09T03:25:43.559Z,980.73
2023-02-09T03:26:14.286Z,980.53
2023-02-09T03:26:44.389Z,980.53
2023-02-09T03:27:16.204Z,980.63
2023-02-09T03:27:46.537Z,980.63
2023-02-09T03:28:18.465Z,980.73
2023-02-09T03:28:48.348Z,980.73
2023-02-09T03:29:20.322Z,980.53
2023-02-09T03:29:50.347Z,980.53
2023-02-09T03:30:23.236Z,980.53
2023-02-09T03:30:53.458Z,980.53
2023-02-09T03:31:31.327Z,980.63
2023-02-09T03:31:54.404Z,980.63
2023-02-09T03:32:25.374Z,980.63
2023-02-09T03:32:57.892Z,980.63
2023-02-09T03:33:27.353Z,980.53
2023-02-09T03:33:59.423Z,980.53
2023-02-09T03:34:29.362Z,980.63
2023-02-09T03:35:01.675Z,980.63
2023-02-09T03:35:31.823Z,980.43
2023-02-09T03:36:05.312Z,980.63
2023-02-09T03:36:33.315Z,980.63
2023-02-09T03:37:04.335Z,980.63
2023-02-09T03:37:37.441Z,980.63
2023-02-09T03:38:06.816Z,980.73
2023-02-09T03:38:38.244Z,980.73
2023-02-09T03:39:08.383Z,980.63
2023-02-09T03:39:43.380Z,980.63
2023-02-09T03:40:10.746Z,980.63
2023-02-09T03:40:41.931Z,980.63
2023-02-09T03:41:14.169Z,980.63
2023-02-09T03:41:43.554Z,980.63
2023-02-09T03:42:15.264Z,980.53
2023-02-09T03:42:45.307Z,980.53
2023-02-09T03:43:18.498Z,980.73
2023-02-09T03:43:47.370Z,980.73
2023-02-09T03:44:20.498Z,980.83
2023-02-09T03:44:49.353Z,980.83
2023-02-09T03:45:22.263Z,980.63
2023-02-09T03:45:51.382Z,980.63
2023-02-09T03:46:24.408Z,980.63
2023-02-09T03:46:53.404Z,980.63
2023-02-09T03:47:25.221Z,980.83
2023-02-09T03:47:55.342Z,980.83
2023-02-09T03:48:27.334Z,980.73
2023-02-09T03:48:57.311Z,980.73
2023-02-09T03:49:29.364Z,980.73
2023-02-09T03:49:59.346Z,980.73
2023-02-09T03:50:31.999Z,980.73
2023-02-09T03:51:01.352Z,980.73
2023-02-09T03:51:39.650Z,980.73
2023-02-09T03:51:49.443Z,980.63
2023-02-09T03:52:27.716Z,980.63
2023-02-09T03:52:34.360Z,980.53
2023-02-09T03:53:05.358Z,980.43
2023-02-09T03:53:37.425Z,980.43
2023-02-09T03:54:07.695Z,980.63
2023-02-09T03:54:39.168Z,980.63
2023-02-09T03:55:09.785Z,980.63
2023-02-09T03:55:41.163Z,980.63
2023-02-09T03:56:11.399Z,980.63
2023-02-09T03:56:49.895Z,980.63
2023-02-09T03:56:59.461Z,980.63
2023-02-09T03:57:37.942Z,980.63
2023-02-09T03:57:44.360Z,980.73
2023-02-09T03:58:15.453Z,980.63
2023-02-09T03:58:47.368Z,980.63
2023-02-09T03:59:17.356Z,980.83
2023-02-09T03:59:52.500Z,980.83
2023-02-09T04:00:20.671Z,980.53
2023-02-09T04:00:54.404Z,980.53
2023-02-09T04:01:23.806Z,980.73
2023-02-09T04:01:53.324Z,980.73
2023-02-09T04:02:24.418Z,980.63
2023-02-09T04:02:54.358Z,980.63
2023-02-09T04:03:26.623Z,980.63
2023-02-09T04:03:56.644Z,980.63
2023-02-09T04:04:28.563Z,980.43
2023-02-09T04:04:58.310Z,980.43
2023-02-09T04:05:34.178Z,980.73
2023-02-09T04:06:00.450Z,980.73
2023-02-09T04:06:31.343Z,980.53
2023-02-09T04:07:04.679Z,980.53
2023-02-09T04:07:34.044Z,980.53
2023-02-09T04:08:05.042Z,980.43
2023-02-09T04:08:35.565Z,980.43
2023-02-09T04:09:07.315Z,980.83
2023-02-09T04:09:37.284Z,980.83
2023-02-09T04:10:10.436Z,980.73
2023-02-09T04:10:39.335Z,980.73
2023-02-09T04:11:17.602Z,980.73
2023-02-09T04:11:26.438Z,980.43
2023-02-09T04:12:04.749Z,980.43
2023-02-09T04:12:13.456Z,980.32
2023-02-09T04:12:44.378Z,980.32
2023-02-09T04:13:14.412Z,980.53
2023-02-09T04:13:46.305Z,980.53
2023-02-09T04:14:17.334Z,980.63
2023-02-09T04:14:48.050Z,980.63
2023-02-09T04:15:19.213Z,980.32
2023-02-09T04:15:53.709Z,980.32
2023-02-09T04:16:20.638Z,980.43
2023-02-09T04:16:51.306Z,980.43
2023-02-09T04:17:24.410Z,980.83
2023-02-09T04:17:53.324Z,980.83
2023-02-09T04:18:32.854Z,980.53
2023-02-09T04:18:55.293Z,980.53
2023-02-09T04:19:26.318Z,980.63
2023-02-09T04:20:03.370Z,980.63
2023-02-09T04:20:37.099Z,980.63
2023-02-09T04:20:59.822Z,980.63
2023-02-09T04:21:38.331Z,980.63
2023-02-09T04:21:46.399Z,980.73
2023-02-09T04:22:24.876Z,980.73
2023-02-09T04:22:33.356Z,980.63
2023-02-09T04:23:12.800Z,980.63
2023-02-09T04:23:34.314Z,980.63
2023-02-09T04:24:05.297Z,980.73
2023-02-09T04:24:43.560Z,980.73
2023-02-09T04:24:52.493Z,980.73
2023-02-09T04:25:31.220Z,980.73
2023-02-09T04:25:38.265Z,980.93
2023-02-09T04:26:10.239Z,980.73
2023-02-09T04:26:40.297Z,980.73
2023-02-09T04:27:12.382Z,980.93
2023-02-09T04:27:43.463Z,980.93
2023-02-09T04:28:14.589Z,980.83
2023-02-09T04:28:44.375Z,980.83
2023-02-09T04:29:16.189Z,980.53
2023-02-09T04:29:46.306Z,980.53
2023-02-09T04:30:20.461Z,980.83
2023-02-09T04:30:48.631Z,980.83
2023-02-09T04:31:24.042Z,980.63
2023-02-09T04:31:50.424Z,980.63
2023-02-09T04:32:21.345Z,980.73
2023-02-09T04:32:53.976Z,980.73
2023-02-09T04:33:23.342Z,980.63
2023-02-09T04:33:56.315Z,980.63
2023-02-09T04:34:25.797Z,980.73
2023-02-09T04:35:00.501Z,980.73
2023-02-09T04:35:28.331Z,980.73
2023-02-09T04:35:58.323Z,980.73
2023-02-09T04:36:31.695Z,980.63
2023-02-09T04:37:00.383Z,980.63
2023-02-09T04:37:32.085Z,980.83
2023-02-09T04:38:03.302Z,980.73
2023-02-09T04:38:41.569Z,980.73
2023-02-09T04:38:49.478Z,980.73
2023-02-09T04:39:27.749Z,980.73
2023-02-09T04:39:35.918Z,980.63
2023-02-09T04:40:07.900Z,980.53
2023-02-09T04:40:37.415Z,980.53
2023-02-09T04:41:12.675Z,980.73
2023-02-09T04:41:39.570Z,980.73
2023-02-09T04:42:10.310Z,980.73
2023-02-09T04:42:43.437Z,980.73
2023-02-09T04:43:13.345Z,980.73
2023-02-09T04:43:45.488Z,980.73
2023-02-09T04:44:14.490Z,980.83
2023-02-09T04:44:46.197Z,980.83
2023-02-09T04:45:17.327Z,980.83
2023-02-09T04:45:56.354Z,980.83
2023-02-09T04:46:04.225Z,980.83
2023-02-09T04:46:44.749Z,980.83
2023-02-09T04:46:49.315Z,980.63
2023-02-09T04:47:21.209Z,980.73
2023-02-09T04:47:51.863Z,980.73
2023-02-09T04:48:24.105Z,980.93
2023-02-09T04:48:53.556Z,980.93
2023-02-09T04:49:25.205Z,980.63
2023-02-09T04:49:55.366Z,980.63
2023-02-09T04:50:28.162Z,980.73
2023-02-09T04:50:57.309Z,980.73
2023-02-09T04:51:29.456Z,980.63
2023-02-09T04:51:59.311Z,980.63
2023-02-09T04:52:32.490Z,980.63
2023-02-09T04:53:01.298Z,980.63
2023-02-09T04:53:35.337Z,980.73
2023-02-09T04:54:04.387Z,980.73
2023-02-09T04:54:34.859Z,980.73
2023-02-09T04:55:07.009Z,980.53
2023-02-09T04:55:36.332Z,980.53
2023-02-09T04:56:08.320Z,980.73
2023-02-09T04:56:38.966Z,980.73
2023-02-09T04:57:10.922Z,980.83
2023-02-09T04:57:40.314Z,980.83
2023-02-09T04:58:12.510Z,980.83
2023-02-09T04:58:43.500Z,980.83
2023-02-09T04:59:14.996Z,980.73
2023-02-09T04:59:44.345Z,980.73
2023-02-09T05:00:18.796Z,980.73
2023-02-09T05:00:49.852Z,980.73
2023-02-09T05:01:18.422Z,980.83
2023-02-09T05:01:48.364Z,980.83
2023-02-09T05:02:20.239Z,980.93
2023-02-09T05:02:50.413Z,980.93
2023-02-09T05:03:24.652Z,980.73
2023-02-09T05:03:54.051Z,980.73
2023-02-09T05:04:32.361Z,980.73
2023-02-09T05:04:39.427Z,980.93
2023-02-09T05:05:18.121Z,980.93
2023-02-09T05:05:25.464Z,980.93
2023-02-09T05:05:56.622Z,980.93
2023-02-09T05:06:27.355Z,980.93
2023-02-09T05:06:59.426Z,980.93
2023-02-09T05:07:29.374Z,980.83
2023-02-09T05:08:04.589Z,980.83
2023-02-09T05:08:31.332Z,980.73
2023-02-09T05:09:03.350Z,980.93
2023-02-09T05:09:34.036Z,980.93
2023-02-09T05:10:04.315Z,981.14
2023-02-09T05:10:43.809Z,981.14
2023-02-09T05:10:51.531Z,981.14
2023-02-09T05:11:29.997Z,981.14
2023-02-09T05:11:37.473Z,981.04
2023-02-09T05:12:09.239Z,981.04
2023-02-09T05:12:39.321Z,981.04
2023-02-09T05:13:18.067Z,981.04
2023-02-09T05:13:26.415Z,981.04
2023-02-09T05:14:04.884Z,981.04
2023-02-09T05:14:13.420Z,980.73
2023-02-09T05:14:44.225Z,980.73
2023-02-09T05:15:16.041Z,980.93
2023-02-09T05:15:45.532Z,980.93
2023-02-09T05:16:18.510Z,980.73
2023-02-09T05:16:47.421Z,980.73
2023-02-09T05:17:23.202Z,980.83
2023-02-09T05:17:49.319Z,980.83
2023-02-09T05:18:20.426Z,980.93
2023-02-09T05:18:52.379Z,980.93
2023-02-09T05:19:23.320Z,980.93
2023-02-09T05:19:57.738Z,980.93
2023-02-09T05:20:25.132Z,980.83
2023-02-09T05:20:55.287Z,980.83
2023-02-09T05:21:27.423Z,980.73
2023-02-09T05:21:57.341Z,980.73
2023-02-09T05:22:29.019Z,980.63
2023-02-09T05:22:59.376Z,980.63
2023-02-09T05:23:31.013Z,980.93
2023-02-09T05:24:01.347Z,980.93
2023-02-09T05:24:37.445Z,980.73
2023-02-09T05:25:04.346Z,980.93
2023-02-09T05:25:34.843Z,980.93
2023-02-09T05:26:07.271Z,980.83
2023-02-09T05:26:36.398Z,980.83
2023-02-09T05:27:08.111Z,980.93
2023-02-09T05:27:38.581Z,980.93
2023-02-09T05:28:10.546Z,980.73
2023-02-09T05:28:40.300Z,980.73
2023-02-09T05:29:12.101Z,980.93
2023-02-09T05:29:43.833Z,980.93
2023-02-09T05:30:15.578Z,980.83
2023-02-09T05:30:45.057Z,980.83
2023-02-09T05:31:16.361Z,981.04
2023-02-09T05:31:46.424Z,981.04
2023-02-09T05:32:18.332Z,981.14
2023-02-09T05:32:48.310Z,981.14
2023-02-09T05:33:26.913Z,980.93
2023-02-09T05:33:50.420Z,980.93
2023-02-09T05:34:21.370Z,980.93
2023-02-09T05:34:54.094Z,980.93
2023-02-09T05:35:23.908Z,980.83
2023-02-09T05:35:55.448Z,980.83
2023-02-09T05:36:25.320Z,980.83
2023-02-09T05:36:58.384Z,980.83
2023-02-09T05:37:27.332Z,980.93
2023-02-09T05:37:59.723Z,980.93
2023-02-09T05:38:29.286Z,980.73
2023-02-09T05:39:02.011Z,980.73
2023-02-09T05:39:31.715Z,980.93
2023-02-09T05:40:05.181Z,980.93
2023-02-09T05:40:37.001Z,980.93
2023-02-09T05:41:05.348Z,981.04
2023-02-09T05:41:35.378Z,981.04
2023-02-09T05:42:07.761Z,980.73
2023-02-09T05:42:37.333Z,980.73
2023-02-09T05:43:09.243Z,981.04
2023-02-09T05:43:39.285Z,981.04
2023-02-09T05:44:12.451Z,981.04
2023-02-09T05:44:41.269Z,981.04
2023-02-09T05:45:15.446Z,980.93
2023-02-09T05:45:43.741Z,980.93
2023-02-09T05:46:15.067Z,980.63
2023-02-09T05:46:45.369Z,980.63
2023-02-09T05:47:17.110Z,981.14
2023-02-09T05:47:47.278Z,981.14
2023-02-09T05:48:19.658Z,980.83
2023-02-09T05:48:49.315Z,980.83
2023-02-09T05:49:21.107Z,981.04
2023-02-09T05:49:51.299Z,981.04
2023-02-09T05:50:24.494Z,980.83
2023-02-09T05:50:53.262Z,980.83
2023-02-09T05:51:25.977Z,980.83
2023-02-09T05:51:55.285Z,980.83
2023-02-09T05:52:27.132Z,980.83
2023-02-09T05:52:57.325Z,980.83
2023-02-09T05:53:29.227Z,981.04
2023-02-09T05:53:59.354Z,981.04
2023-02-09T05:54:31.328Z,980.93
2023-02-09T05:55:02.307Z,980.93
2023-02-09T05:55:38.071Z,980.93
2023-02-09T05:56:04.300Z,981.14
2023-02-09T05:56:34.329Z,981.14
2023-02-09T05:57:06.205Z,981.04
2023-02-09T05:57:36.333Z,981.04
2023-02-09T05:58:08.215Z,981.04
2023-02-09T05:58:38.605Z,981.04
2023-02-09T05:59:10.351Z,980.93
2023-02-09T05:59:40.264Z,980.93
2023-02-09T06:00:14.406Z,981.14
2023-02-09T06:00:47.152Z,981.14
2023-02-09T06:01:14.359Z,980.93
2023-02-09T06:01:44.344Z,980.93
2023-02-09T06:02:16.289Z,981.14
2023-02-09T06:02:46.323Z,981.14
2023-02-09T06:03:18.454Z,981.04
2023-02-09T06:03:48.336Z,981.04
2023-02-09T06:04:20.357Z,981.14
2023-02-09T06:04:50.354Z,981.14
2023-02-09T06:05:22.830Z,980.83
2023-02-09T06:05:53.322Z,980.83
2023-02-09T06:06:23.299Z,981.14
2023-02-09T06:06:55.302Z,981.14
2023-02-09T06:07:25.342Z,981.24
2023-02-09T06:07:57.157Z,981.24
2023-02-09T06:08:27.308Z,981.14
2023-02-09T06:08:59.412Z,981.14
2023-02-09T06:09:29.393Z,981.14
2023-02-09T06:10:01.699Z,981.14
2023-02-09T06:10:31.781Z,981.24
2023-02-09T06:11:04.509Z,981.34
2023-02-09T06:11:33.313Z,981.34
2023-02-09T06:12:05.108Z,981.24
2023-02-09T06:12:35.646Z,981.24
2023-02-09T06:13:07.082Z,981.04
2023-02-09T06:13:37.353Z,981.04
2023-02-09T06:14:09.541Z,981.14
2023-02-09T06:14:39.323Z,981.14
2023-02-09T06:15:12.342Z,981.14
2023-02-09T06:15:41.443Z,981.14
2023-02-09T06:16:15.128Z,981.14
2023-02-09T06:16:43.359Z,981.14
2023-02-09T06:17:14.647Z,981.24
2023-02-09T06:17:46.414Z,981.24
2023-02-09T06:18:16.430Z,981.14
2023-02-09T06:18:48.388Z,981.14
2023-02-09T06:19:19.091Z,981.14
2023-02-09T06:19:50.352Z,981.14
2023-02-09T06:20:21.328Z,981.24
2023-02-09T06:20:52.332Z,981.24